sensor_id;sensor_type;location;lat;lon;timestamp;temperature;humidity
21811;DHT22;11067;48.788;9.208;2022-08-21T00:01:20;16.90;99.90
21811;DHT22;11067;48.788;9.208;2022-08-21T00:03:46;16.80;99.90
21811;DHT22;11067;48.788;9.208;2022-08-21T00:06:12;16.70;99.90
21811;DHT22;11067;48.788;9.208;2022-08-21T00:08:38;16.70;99.90
21811;DHT22;11067;48.788;9.208;2022-08-21T00:11:04;16.70;99.90
21811;DHT22;11067;48.788;9.208;2022-08-21T00:13:30;16.70;99.90
21811;DHT22;11067;48.788;9.208;2022-08-21T00:15:57;16.80;99.90
21811;DHT22;11067;48.788;9.208;2022-08-21T00:18:24;16.70;99.90
21811;DHT22;11067;48.788;9.208;2022-08-21T00:20:50;16.80;99.90
21811;DHT22;11067;48.788;9.208;2022-08-21T00:23:16;16.70;99.90
21811;DHT22;11067;48.788;9.208;2022-08-21T00:25:43;16.70;99.90
21811;DHT22;11067;48.788;9.208;2022-08-21T00:28:09;16.70;99.90
21811;DHT22;11067;48.788;9.208;2022-08-21T00:30:35;16.70;99.90
21811;DHT22;11067;48.788;9.208;2022-08-21T00:33:01;16.70;99.90
21811;DHT22;11067;48.788;9.208;2022-08-21T00:35:33;16.60;99.90
21811;DHT22;11067;48.788;9.208;2022-08-21T00:37:59;16.50;99.90
21811;DHT22;11067;48.788;9.208;2022-08-21T00:40:35;16.50;99.90
21811;DHT22;11067;48.788;9.208;2022-08-21T00:43:04;16.50;99.90
21811;DHT22;11067;48.788;9.208;2022-08-21T00:45:30;16.60;99.90
21811;DHT22;11067;48.788;9.208;2022-08-21T00:47:56;16.60;99.90
21811;DHT22;11067;48.788;9.208;2022-08-21T00:50:24;16.50;99.90
21811;DHT22;11067;48.788;9.208;2022-08-21T00:52:51;16.40;99.90
21811;DHT22;11067;48.788;9.208;2022-08-21T00:55:18;16.30;99.90
21811;DHT22;11067;48.788;9.208;2022-08-21T00:57:48;16.30;99.90
21811;DHT22;11067;48.788;9.208;2022-08-21T01:00:17;16.30;99.90
21811;DHT22;11067;48.788;9.208;2022-08-21T01:02:43;16.20;99.90
21811;DHT22;11067;48.788;9.208;2022-08-21T01:05:09;16.20;99.90
21811;DHT22;11067;48.788;9.208;2022-08-21T01:07:35;16.10;99.90
21811;DHT22;11067;48.788;9.208;2022-08-21T01:10:02;16.10;99.90
21811;DHT22;11067;48.788;9.208;2022-08-21T01:12:28;16.10;99.90
21811;DHT22;11067;48.788;9.208;2022-08-21T01:14:54;16.00;99.90
21811;DHT22;11067;48.788;9.208;2022-08-21T01:17:20;16.00;99.90
21811;DHT22;11067;48.788;9.208;2022-08-21T01:19:46;15.90;99.90
21811;DHT22;11067;48.788;9.208;2022-08-21T01:22:12;16.00;99.90
21811;DHT22;11067;48.788;9.208;2022-08-21T01:24:38;16.00;99.90
21811;DHT22;11067;48.788;9.208;2022-08-21T01:27:04;16.00;99.90
21811;DHT22;11067;48.788;9.208;2022-08-21T01:29:36;16.00;99.90
21811;DHT22;11067;48.788;9.208;2022-08-21T01:32:06;16.00;99.90
21811;DHT22;11067;48.788;9.208;2022-08-21T01:34:34;15.90;99.90
21811;DHT22;11067;48.788;9.208;2022-08-21T01:37:01;15.90;99.90
21811;DHT22;11067;48.788;9.208;2022-08-21T01:39:28;15.80;99.90
21811;DHT22;11067;48.788;9.208;2022-08-21T01:41:53;15.80;99.90
21811;DHT22;11067;48.788;9.208;2022-08-21T01:44:23;15.80;99.90
21811;DHT22;11067;48.788;9.208;2022-08-21T01:46:49;15.70;99.90
21811;DHT22;11067;48.788;9.208;2022-08-21T01:49:15;15.70;99.90
21811;DHT22;11067;48.788;9.208;2022-08-21T01:51:41;15.80;99.90
21811;DHT22;11067;48.788;9.208;2022-08-21T01:54:07;15.70;99.90
21811;DHT22;11067;48.788;9.208;2022-08-21T01:56:40;15.70;99.90
21811;DHT22;11067;48.788;9.208;2022-08-21T01:59:07;15.70;99.90
21811;DHT22;11067;48.788;9.208;2022-08-21T02:01:33;15.70;99.90
21811;DHT22;11067;48.788;9.208;2022-08-21T02:03:59;15.70;99.90
21811;DHT22;11067;48.788;9.208;2022-08-21T02:06:25;15.70;99.90
21811;DHT22;11067;48.788;9.208;2022-08-21T02:08:52;15.70;99.90
21811;DHT22;11067;48.788;9.208;2022-08-21T02:11:18;15.70;99.90
21811;DHT22;11067;48.788;9.208;2022-08-21T02:13:43;15.70;99.90
21811;DHT22;11067;48.788;9.208;2022-08-21T02:16:09;15.70;99.90
21811;DHT22;11067;48.788;9.208;2022-08-21T02:18:35;15.60;99.90
21811;DHT22;11067;48.788;9.208;2022-08-21T02:21:02;15.60;99.90
21811;DHT22;11067;48.788;9.208;2022-08-21T02:23:28;15.50;99.90
21811;DHT22;11067;48.788;9.208;2022-08-21T02:25:56;15.40;99.90
21811;DHT22;11067;48.788;9.208;2022-08-21T02:28:22;15.40;99.90
21811;DHT22;11067;48.788;9.208;2022-08-21T02:30:48;15.40;99.90
21811;DHT22;11067;48.788;9.208;2022-08-21T02:33:14;15.30;99.90
21811;DHT22;11067;48.788;9.208;2022-08-21T02:35:41;15.30;99.90
21811;DHT22;11067;48.788;9.208;2022-08-21T02:38:13;15.30;99.90
21811;DHT22;11067;48.788;9.208;2022-08-21T02:40:41;15.40;99.90
21811;DHT22;11067;48.788;9.208;2022-08-21T02:43:07;15.40;99.90
21811;DHT22;11067;48.788;9.208;2022-08-21T02:45:34;15.30;99.90
21811;DHT22;11067;48.788;9.208;2022-08-21T02:48:03;15.30;99.90
21811;DHT22;11067;48.788;9.208;2022-08-21T02:50:33;15.30;99.90
21811;DHT22;11067;48.788;9.208;2022-08-21T02:53:00;15.30;99.90
21811;DHT22;11067;48.788;9.208;2022-08-21T02:55:29;15.30;99.90
21811;DHT22;11067;48.788;9.208;2022-08-21T02:57:56;15.30;99.90
21811;DHT22;11067;48.788;9.208;2022-08-21T03:00:24;15.30;99.90
21811;DHT22;11067;48.788;9.208;2022-08-21T03:02:50;15.30;99.90
21811;DHT22;11067;48.788;9.208;2022-08-21T03:05:17;15.30;99.90
21811;DHT22;11067;48.788;9.208;2022-08-21T03:07:44;15.30;99.90
21811;DHT22;11067;48.788;9.208;2022-08-21T03:10:10;15.20;99.90
21811;DHT22;11067;48.788;9.208;2022-08-21T03:12:36;15.20;99.90
21811;DHT22;11067;48.788;9.208;2022-08-21T03:15:07;15.20;99.90
21811;DHT22;11067;48.788;9.208;2022-08-21T03:17:33;15.10;99.90
21811;DHT22;11067;48.788;9.208;2022-08-21T03:19:59;15.10;99.90
21811;DHT22;11067;48.788;9.208;2022-08-21T03:22:26;15.10;99.90
21811;DHT22;11067;48.788;9.208;2022-08-21T03:24:52;15.10;99.90
21811;DHT22;11067;48.788;9.208;2022-08-21T03:27:18;15.00;99.90
21811;DHT22;11067;48.788;9.208;2022-08-21T03:29:44;15.10;99.90
21811;DHT22;11067;48.788;9.208;2022-08-21T03:32:09;15.00;99.90
21811;DHT22;11067;48.788;9.208;2022-08-21T03:34:37;15.00;99.90
21811;DHT22;11067;48.788;9.208;2022-08-21T03:37:05;15.10;99.90
21811;DHT22;11067;48.788;9.208;2022-08-21T03:39:31;15.10;99.90
21811;DHT22;11067;48.788;9.208;2022-08-21T03:41:56;15.00;99.90
21811;DHT22;11067;48.788;9.208;2022-08-21T03:44:22;15.00;99.90
21811;DHT22;11067;48.788;9.208;2022-08-21T03:46:48;15.10;99.90
21811;DHT22;11067;48.788;9.208;2022-08-21T03:49:14;15.10;99.90
21811;DHT22;11067;48.788;9.208;2022-08-21T03:51:39;15.00;99.90
21811;DHT22;11067;48.788;9.208;2022-08-21T03:54:05;15.10;99.90
21811;DHT22;11067;48.788;9.208;2022-08-21T03:56:31;15.00;99.90
21811;DHT22;11067;48.788;9.208;2022-08-21T03:58:57;14.80;99.90
21811;DHT22;11067;48.788;9.208;2022-08-21T04:01:22;14.80;99.90
21811;DHT22;11067;48.788;9.208;2022-08-21T04:03:48;14.80;99.90
21811;DHT22;11067;48.788;9.208;2022-08-21T04:06:13;14.80;99.90
21811;DHT22;11067;48.788;9.208;2022-08-21T04:08:39;14.70;99.90
21811;DHT22;11067;48.788;9.208;2022-08-21T04:11:08;14.60;99.90
21811;DHT22;11067;48.788;9.208;2022-08-21T04:13:35;14.60;99.90
21811;DHT22;11067;48.788;9.208;2022-08-21T04:16:01;14.60;99.90
21811;DHT22;11067;48.788;9.208;2022-08-21T04:18:27;14.50;99.90
21811;DHT22;11067;48.788;9.208;2022-08-21T04:20:53;14.60;99.90
21811;DHT22;11067;48.788;9.208;2022-08-21T04:23:19;14.60;99.90
21811;DHT22;11067;48.788;9.208;2022-08-21T04:25:45;14.60;99.90
21811;DHT22;11067;48.788;9.208;2022-08-21T04:28:10;14.60;99.90
21811;DHT22;11067;48.788;9.208;2022-08-21T04:30:36;14.60;99.90
21811;DHT22;11067;48.788;9.208;2022-08-21T04:33:02;14.60;99.90
21811;DHT22;11067;48.788;9.208;2022-08-21T04:35:29;14.50;99.90
21811;DHT22;11067;48.788;9.208;2022-08-21T04:37:55;14.60;99.90
21811;DHT22;11067;48.788;9.208;2022-08-21T04:40:26;14.60;99.90
21811;DHT22;11067;48.788;9.208;2022-08-21T04:42:55;14.70;99.90
21811;DHT22;11067;48.788;9.208;2022-08-21T04:45:55;14.60;99.90
21811;DHT22;11067;48.788;9.208;2022-08-21T04:48:15;14.70;99.90
21811;DHT22;11067;48.788;9.208;2022-08-21T04:50:45;14.80;99.90
21811;DHT22;11067;48.788;9.208;2022-08-21T04:53:26;14.70;99.90
21811;DHT22;11067;48.788;9.208;2022-08-21T04:55:54;14.80;99.90
21811;DHT22;11067;48.788;9.208;2022-08-21T04:58:21;14.70;99.90
21811;DHT22;11067;48.788;9.208;2022-08-21T05:00:48;14.80;99.90
21811;DHT22;11067;48.788;9.208;2022-08-21T05:03:14;14.80;99.90
21811;DHT22;11067;48.788;9.208;2022-08-21T05:05:42;15.00;99.90
21811;DHT22;11067;48.788;9.208;2022-08-21T05:08:11;15.80;99.90
21811;DHT22;11067;48.788;9.208;2022-08-21T05:10:37;16.00;99.90
21811;DHT22;11067;48.788;9.208;2022-08-21T05:13:03;16.10;99.90
21811;DHT22;11067;48.788;9.208;2022-08-21T05:15:30;16.50;99.90
21811;DHT22;11067;48.788;9.208;2022-08-21T05:17:56;17.30;99.90
21811;DHT22;11067;48.788;9.208;2022-08-21T05:20:21;17.60;99.90
21811;DHT22;11067;48.788;9.208;2022-08-21T05:22:47;17.40;99.90
21811;DHT22;11067;48.788;9.208;2022-08-21T05:25:12;17.30;99.90
21811;DHT22;11067;48.788;9.208;2022-08-21T05:27:38;17.10;99.90
21811;DHT22;11067;48.788;9.208;2022-08-21T05:30:07;17.00;99.90
21811;DHT22;11067;48.788;9.208;2022-08-21T05:32:34;17.00;99.90
21811;DHT22;11067;48.788;9.208;2022-08-21T05:35:00;17.20;99.90
21811;DHT22;11067;48.788;9.208;2022-08-21T05:37:26;17.70;99.90
21811;DHT22;11067;48.788;9.208;2022-08-21T05:39:51;18.50;99.90
21811;DHT22;11067;48.788;9.208;2022-08-21T05:42:17;19.10;99.90
21811;DHT22;11067;48.788;9.208;2022-08-21T05:44:42;19.80;99.90
21811;DHT22;11067;48.788;9.208;2022-08-21T05:47:10;19.00;99.90
21811;DHT22;11067;48.788;9.208;2022-08-21T05:49:36;18.40;99.90
21811;DHT22;11067;48.788;9.208;2022-08-21T05:52:02;18.00;99.90
21811;DHT22;11067;48.788;9.208;2022-08-21T05:54:29;19.00;99.90
21811;DHT22;11067;48.788;9.208;2022-08-21T05:56:54;19.70;99.90
21811;DHT22;11067;48.788;9.208;2022-08-21T05:59:20;19.60;99.90
21811;DHT22;11067;48.788;9.208;2022-08-21T06:01:46;19.60;99.90
21811;DHT22;11067;48.788;9.208;2022-08-21T06:04:12;19.70;99.90
21811;DHT22;11067;48.788;9.208;2022-08-21T06:06:38;19.30;99.90
21811;DHT22;11067;48.788;9.208;2022-08-21T06:09:05;19.30;99.90
21811;DHT22;11067;48.788;9.208;2022-08-21T06:11:31;19.00;99.90
21811;DHT22;11067;48.788;9.208;2022-08-21T06:13:57;18.90;99.90
21811;DHT22;11067;48.788;9.208;2022-08-21T06:16:23;19.10;99.90
21811;DHT22;11067;48.788;9.208;2022-08-21T06:18:49;19.20;99.90
21811;DHT22;11067;48.788;9.208;2022-08-21T06:21:15;18.60;99.90
21811;DHT22;11067;48.788;9.208;2022-08-21T06:23:42;18.50;99.90
21811;DHT22;11067;48.788;9.208;2022-08-21T06:26:09;18.40;99.90
21811;DHT22;11067;48.788;9.208;2022-08-21T06:28:35;18.80;99.90
21811;DHT22;11067;48.788;9.208;2022-08-21T06:31:13;18.80;99.90
21811;DHT22;11067;48.788;9.208;2022-08-21T06:33:39;18.90;99.90
21811;DHT22;11067;48.788;9.208;2022-08-21T06:36:05;19.00;99.90
21811;DHT22;11067;48.788;9.208;2022-08-21T06:38:31;18.60;99.90
21811;DHT22;11067;48.788;9.208;2022-08-21T06:40:57;18.40;99.90
21811;DHT22;11067;48.788;9.208;2022-08-21T06:43:22;18.60;99.90
21811;DHT22;11067;48.788;9.208;2022-08-21T06:45:48;18.50;99.90
21811;DHT22;11067;48.788;9.208;2022-08-21T06:48:13;18.30;99.90
21811;DHT22;11067;48.788;9.208;2022-08-21T06:50:39;18.30;99.90
21811;DHT22;11067;48.788;9.208;2022-08-21T06:53:07;18.50;99.90
21811;DHT22;11067;48.788;9.208;2022-08-21T06:55:33;18.70;99.90
21811;DHT22;11067;48.788;9.208;2022-08-21T06:57:59;18.90;99.90
21811;DHT22;11067;48.788;9.208;2022-08-21T07:00:25;19.00;99.90
21811;DHT22;11067;48.788;9.208;2022-08-21T07:02:51;19.10;99.90
21811;DHT22;11067;48.788;9.208;2022-08-21T07:05:17;19.10;99.90
21811;DHT22;11067;48.788;9.208;2022-08-21T07:07:42;19.10;99.90
21811;DHT22;11067;48.788;9.208;2022-08-21T07:10:08;19.30;99.90
21811;DHT22;11067;48.788;9.208;2022-08-21T07:12:33;19.00;99.90
21811;DHT22;11067;48.788;9.208;2022-08-21T07:14:59;19.10;99.90
21811;DHT22;11067;48.788;9.208;2022-08-21T07:17:25;18.90;99.90
21811;DHT22;11067;48.788;9.208;2022-08-21T07:19:50;19.30;99.90
21811;DHT22;11067;48.788;9.208;2022-08-21T07:22:18;19.50;99.90
21811;DHT22;11067;48.788;9.208;2022-08-21T07:24:45;19.60;99.90
21811;DHT22;11067;48.788;9.208;2022-08-21T07:27:10;19.90;99.90
21811;DHT22;11067;48.788;9.208;2022-08-21T07:29:36;20.00;99.90
21811;DHT22;11067;48.788;9.208;2022-08-21T07:32:03;20.10;99.90
21811;DHT22;11067;48.788;9.208;2022-08-21T07:34:29;20.30;99.90
21811;DHT22;11067;48.788;9.208;2022-08-21T07:36:56;20.40;99.90
21811;DHT22;11067;48.788;9.208;2022-08-21T07:39:21;20.60;99.90
21811;DHT22;11067;48.788;9.208;2022-08-21T07:41:47;20.60;99.90
21811;DHT22;11067;48.788;9.208;2022-08-21T07:44:12;20.80;99.90
21811;DHT22;11067;48.788;9.208;2022-08-21T07:46:38;21.10;99.90
21811;DHT22;11067;48.788;9.208;2022-08-21T07:49:03;21.30;99.90
21811;DHT22;11067;48.788;9.208;2022-08-21T07:51:29;21.30;99.90
21811;DHT22;11067;48.788;9.208;2022-08-21T07:53:57;21.60;99.90
21811;DHT22;11067;48.788;9.208;2022-08-21T07:56:23;21.50;99.90
21811;DHT22;11067;48.788;9.208;2022-08-21T07:58:48;21.60;99.90
21811;DHT22;11067;48.788;9.208;2022-08-21T08:01:14;21.60;99.90
21811;DHT22;11067;48.788;9.208;2022-08-21T08:03:40;21.70;99.90
21811;DHT22;11067;48.788;9.208;2022-08-21T08:06:07;21.80;99.90
21811;DHT22;11067;48.788;9.208;2022-08-21T08:08:37;22.00;99.90
21811;DHT22;11067;48.788;9.208;2022-08-21T08:11:03;22.10;99.90
21811;DHT22;11067;48.788;9.208;2022-08-21T08:13:29;22.00;99.90
21811;DHT22;11067;48.788;9.208;2022-08-21T08:15:54;22.30;99.90
21811;DHT22;11067;48.788;9.208;2022-08-21T08:18:19;22.50;99.90
21811;DHT22;11067;48.788;9.208;2022-08-21T08:20:45;22.50;99.90
21811;DHT22;11067;48.788;9.208;2022-08-21T08:23:12;22.50;99.90
21811;DHT22;11067;48.788;9.208;2022-08-21T08:25:38;22.60;99.90
21811;DHT22;11067;48.788;9.208;2022-08-21T08:28:04;22.60;99.90
21811;DHT22;11067;48.788;9.208;2022-08-21T08:30:30;22.50;99.90
21811;DHT22;11067;48.788;9.208;2022-08-21T08:32:56;22.70;99.90
21811;DHT22;11067;48.788;9.208;2022-08-21T08:35:22;22.70;99.90
21811;DHT22;11067;48.788;9.208;2022-08-21T08:37:48;22.80;99.90
21811;DHT22;11067;48.788;9.208;2022-08-21T08:42:50;22.90;99.90
21811;DHT22;11067;48.788;9.208;2022-08-21T08:45:19;23.10;99.90
21811;DHT22;11067;48.788;9.208;2022-08-21T08:47:51;23.30;99.90
21811;DHT22;11067;48.788;9.208;2022-08-21T08:50:46;23.00;99.90
21811;DHT22;11067;48.788;9.208;2022-08-21T08:53:22;23.10;99.90
21811;DHT22;11067;48.788;9.208;2022-08-21T08:55:51;23.20;99.90
21811;DHT22;11067;48.788;9.208;2022-08-21T08:58:25;23.20;99.90
21811;DHT22;11067;48.788;9.208;2022-08-21T09:00:54;23.40;99.90
21811;DHT22;11067;48.788;9.208;2022-08-21T09:03:22;23.40;99.90
21811;DHT22;11067;48.788;9.208;2022-08-21T09:08:42;23.60;99.90
21811;DHT22;11067;48.788;9.208;2022-08-21T09:11:29;23.70;99.90
21811;DHT22;11067;48.788;9.208;2022-08-21T09:14:08;24.00;99.90
21811;DHT22;11067;48.788;9.208;2022-08-21T09:22:39;24.30;99.90
21811;DHT22;11067;48.788;9.208;2022-08-21T09:25:42;23.90;99.90
21811;DHT22;11067;48.788;9.208;2022-08-21T09:28:12;24.00;99.90
21811;DHT22;11067;48.788;9.208;2022-08-21T09:30:40;24.00;99.90
21811;DHT22;11067;48.788;9.208;2022-08-21T09:33:06;24.20;99.90
21811;DHT22;11067;48.788;9.208;2022-08-21T09:35:32;24.50;99.90
21811;DHT22;11067;48.788;9.208;2022-08-21T09:38:03;24.70;99.90
21811;DHT22;11067;48.788;9.208;2022-08-21T09:40:38;24.60;99.90
21811;DHT22;11067;48.788;9.208;2022-08-21T09:43:18;24.50;99.90
21811;DHT22;11067;48.788;9.208;2022-08-21T09:45:45;24.90;99.90
21811;DHT22;11067;48.788;9.208;2022-08-21T09:48:13;24.90;99.90
21811;DHT22;11067;48.788;9.208;2022-08-21T09:50:40;24.90;99.90
21811;DHT22;11067;48.788;9.208;2022-08-21T09:53:24;24.80;99.90
21811;DHT22;11067;48.788;9.208;2022-08-21T09:55:58;25.10;99.90
21811;DHT22;11067;48.788;9.208;2022-08-21T09:58:47;25.30;99.90
21811;DHT22;11067;48.788;9.208;2022-08-21T10:01:15;25.40;99.90
21811;DHT22;11067;48.788;9.208;2022-08-21T10:03:41;25.20;99.90
21811;DHT22;11067;48.788;9.208;2022-08-21T10:06:08;25.40;99.90
21811;DHT22;11067;48.788;9.208;2022-08-21T10:08:39;25.30;99.90
21811;DHT22;11067;48.788;9.208;2022-08-21T10:11:10;25.40;99.90
21811;DHT22;11067;48.788;9.208;2022-08-21T10:13:57;25.10;99.90
21811;DHT22;11067;48.788;9.208;2022-08-21T10:19:48;24.80;99.90
21811;DHT22;11067;48.788;9.208;2022-08-21T10:22:25;24.50;99.90
21811;DHT22;11067;48.788;9.208;2022-08-21T10:25:18;24.40;99.90
21811;DHT22;11067;48.788;9.208;2022-08-21T10:28:27;24.20;99.90
21811;DHT22;11067;48.788;9.208;2022-08-21T10:34:02;25.00;99.90
21811;DHT22;11067;48.788;9.208;2022-08-21T10:36:39;25.20;99.90
21811;DHT22;11067;48.788;9.208;2022-08-21T10:39:21;25.10;99.90
21811;DHT22;11067;48.788;9.208;2022-08-21T10:47:53;25.40;99.90
21811;DHT22;11067;48.788;9.208;2022-08-21T10:58:08;25.90;99.90
21811;DHT22;11067;48.788;9.208;2022-08-21T11:00:46;25.90;99.90
21811;DHT22;11067;48.788;9.208;2022-08-21T11:03:17;25.90;99.90
21811;DHT22;11067;48.788;9.208;2022-08-21T11:06:02;26.10;99.90
21811;DHT22;11067;48.788;9.208;2022-08-21T11:08:33;26.30;99.90
21811;DHT22;11067;48.788;9.208;2022-08-21T11:11:30;26.20;99.90
21811;DHT22;11067;48.788;9.208;2022-08-21T11:14:21;25.50;99.90
21811;DHT22;11067;48.788;9.208;2022-08-21T11:16:56;25.90;99.90
21811;DHT22;11067;48.788;9.208;2022-08-21T11:19:29;25.70;99.90
21811;DHT22;11067;48.788;9.208;2022-08-21T11:22:19;25.90;99.90
21811;DHT22;11067;48.788;9.208;2022-08-21T11:24:48;26.00;99.90
21811;DHT22;11067;48.788;9.208;2022-08-21T11:27:29;26.10;99.90
21811;DHT22;11067;48.788;9.208;2022-08-21T11:30:00;26.20;99.90
21811;DHT22;11067;48.788;9.208;2022-08-21T11:32:32;26.60;99.90
21811;DHT22;11067;48.788;9.208;2022-08-21T11:46:03;26.60;99.90
21811;DHT22;11067;48.788;9.208;2022-08-21T11:51:44;26.20;99.90
21811;DHT22;11067;48.788;9.208;2022-08-21T11:54:28;26.40;99.90
21811;DHT22;11067;48.788;9.208;2022-08-21T11:57:20;26.40;99.90
21811;DHT22;11067;48.788;9.208;2022-08-21T12:02:33;26.30;99.90
21811;DHT22;11067;48.788;9.208;2022-08-21T12:05:05;26.20;99.90
21811;DHT22;11067;48.788;9.208;2022-08-21T12:07:36;26.30;99.90
21811;DHT22;11067;48.788;9.208;2022-08-21T12:10:06;26.40;99.90
21811;DHT22;11067;48.788;9.208;2022-08-21T12:12:35;26.00;99.90
21811;DHT22;11067;48.788;9.208;2022-08-21T12:18:21;26.50;99.90
21811;DHT22;11067;48.788;9.208;2022-08-21T12:23:59;26.90;99.90
21811;DHT22;11067;48.788;9.208;2022-08-21T12:26:47;26.60;99.90
21811;DHT22;11067;48.788;9.208;2022-08-21T12:31:57;27.10;99.90
21811;DHT22;11067;48.788;9.208;2022-08-21T12:34:36;27.10;99.90
21811;DHT22;11067;48.788;9.208;2022-08-21T12:37:06;26.80;99.90
21811;DHT22;11067;48.788;9.208;2022-08-21T12:39:35;26.70;99.90
21811;DHT22;11067;48.788;9.208;2022-08-21T12:42:19;26.50;99.90
21811;DHT22;11067;48.788;9.208;2022-08-21T12:44:56;27.00;99.90
21811;DHT22;11067;48.788;9.208;2022-08-21T12:50:55;27.00;99.90
21811;DHT22;11067;48.788;9.208;2022-08-21T12:53:50;26.80;99.90
21811;DHT22;11067;48.788;9.208;2022-08-21T12:56:19;27.00;99.90
21811;DHT22;11067;48.788;9.208;2022-08-21T12:58:48;26.70;99.90
21811;DHT22;11067;48.788;9.208;2022-08-21T13:01:22;27.00;99.90
21811;DHT22;11067;48.788;9.208;2022-08-21T13:03:50;27.10;99.90
21811;DHT22;11067;48.788;9.208;2022-08-21T13:06:18;26.80;99.90
21811;DHT22;11067;48.788;9.208;2022-08-21T13:08:47;26.90;99.90
21811;DHT22;11067;48.788;9.208;2022-08-21T13:11:15;26.80;99.90
21811;DHT22;11067;48.788;9.208;2022-08-21T13:13:43;26.80;99.90
21811;DHT22;11067;48.788;9.208;2022-08-21T13:16:09;26.50;99.90
21811;DHT22;11067;48.788;9.208;2022-08-21T13:18:54;26.40;99.90
21811;DHT22;11067;48.788;9.208;2022-08-21T13:21:20;26.80;99.90
21811;DHT22;11067;48.788;9.208;2022-08-21T13:23:46;26.50;99.90
21811;DHT22;11067;48.788;9.208;2022-08-21T13:26:18;26.80;99.90
21811;DHT22;11067;48.788;9.208;2022-08-21T13:28:44;26.70;99.90
21811;DHT22;11067;48.788;9.208;2022-08-21T13:31:16;26.80;99.90
21811;DHT22;11067;48.788;9.208;2022-08-21T13:33:43;27.00;99.90
21811;DHT22;11067;48.788;9.208;2022-08-21T13:36:13;27.30;99.90
21811;DHT22;11067;48.788;9.208;2022-08-21T13:38:42;27.10;99.90
21811;DHT22;11067;48.788;9.208;2022-08-21T13:43:45;27.50;99.90
21811;DHT22;11067;48.788;9.208;2022-08-21T13:46:12;27.40;99.90
21811;DHT22;11067;48.788;9.208;2022-08-21T13:48:39;27.40;99.90
21811;DHT22;11067;48.788;9.208;2022-08-21T13:51:05;27.40;99.90
21811;DHT22;11067;48.788;9.208;2022-08-21T13:53:43;27.20;99.90
21811;DHT22;11067;48.788;9.208;2022-08-21T13:56:22;27.20;99.90
21811;DHT22;11067;48.788;9.208;2022-08-21T13:58:47;27.50;99.90
21811;DHT22;11067;48.788;9.208;2022-08-21T14:01:37;27.50;99.90
21811;DHT22;11067;48.788;9.208;2022-08-21T14:04:18;27.50;99.90
21811;DHT22;11067;48.788;9.208;2022-08-21T14:06:45;27.40;99.90
21811;DHT22;11067;48.788;9.208;2022-08-21T14:11:54;26.90;99.90
21811;DHT22;11067;48.788;9.208;2022-08-21T14:14:30;27.20;99.90
21811;DHT22;11067;48.788;9.208;2022-08-21T14:17:02;27.20;99.90
21811;DHT22;11067;48.788;9.208;2022-08-21T14:19:44;27.30;99.90
21811;DHT22;11067;48.788;9.208;2022-08-21T14:24:49;27.30;99.90
21811;DHT22;11067;48.788;9.208;2022-08-21T14:27:17;27.60;99.90
21811;DHT22;11067;48.788;9.208;2022-08-21T14:29:43;27.60;99.90
21811;DHT22;11067;48.788;9.208;2022-08-21T14:32:30;27.50;99.90
21811;DHT22;11067;48.788;9.208;2022-08-21T14:35:01;27.70;99.90
21811;DHT22;11067;48.788;9.208;2022-08-21T14:37:26;27.50;99.90
21811;DHT22;11067;48.788;9.208;2022-08-21T14:39:52;27.50;99.90
21811;DHT22;11067;48.788;9.208;2022-08-21T14:42:18;27.40;99.90
21811;DHT22;11067;48.788;9.208;2022-08-21T14:44:44;27.50;99.90
21811;DHT22;11067;48.788;9.208;2022-08-21T14:47:09;27.60;99.90
21811;DHT22;11067;48.788;9.208;2022-08-21T14:49:35;27.40;99.90
21811;DHT22;11067;48.788;9.208;2022-08-21T14:52:01;27.20;99.90
21811;DHT22;11067;48.788;9.208;2022-08-21T14:54:29;27.20;99.90
21811;DHT22;11067;48.788;9.208;2022-08-21T14:56:57;27.30;99.90
21811;DHT22;11067;48.788;9.208;2022-08-21T14:59:23;27.10;99.90
21811;DHT22;11067;48.788;9.208;2022-08-21T15:01:50;27.20;99.90
21811;DHT22;11067;48.788;9.208;2022-08-21T15:04:17;27.20;99.90
21811;DHT22;11067;48.788;9.208;2022-08-21T15:06:42;27.20;99.90
21811;DHT22;11067;48.788;9.208;2022-08-21T15:09:08;27.20;99.90
21811;DHT22;11067;48.788;9.208;2022-08-21T15:11:34;27.30;99.90
21811;DHT22;11067;48.788;9.208;2022-08-21T15:14:02;27.40;99.90
21811;DHT22;11067;48.788;9.208;2022-08-21T15:16:29;27.60;99.90
21811;DHT22;11067;48.788;9.208;2022-08-21T15:18:58;27.40;99.90
21811;DHT22;11067;48.788;9.208;2022-08-21T15:21:23;27.40;99.90
21811;DHT22;11067;48.788;9.208;2022-08-21T15:23:49;27.20;99.90
21811;DHT22;11067;48.788;9.208;2022-08-21T15:26:14;27.20;99.90
21811;DHT22;11067;48.788;9.208;2022-08-21T15:28:40;27.20;99.90
21811;DHT22;11067;48.788;9.208;2022-08-21T15:31:06;27.30;99.90
21811;DHT22;11067;48.788;9.208;2022-08-21T15:33:32;27.20;99.90
21811;DHT22;11067;48.788;9.208;2022-08-21T15:35:58;27.20;99.90
21811;DHT22;11067;48.788;9.208;2022-08-21T15:38:24;27.30;99.90
21811;DHT22;11067;48.788;9.208;2022-08-21T15:40:50;27.10;99.80
21811;DHT22;11067;48.788;9.208;2022-08-21T15:43:28;27.20;99.60
21811;DHT22;11067;48.788;9.208;2022-08-21T15:45:54;27.20;99.40
21811;DHT22;11067;48.788;9.208;2022-08-21T15:48:20;27.20;99.10
21811;DHT22;11067;48.788;9.208;2022-08-21T15:50:46;27.00;99.60
21811;DHT22;11067;48.788;9.208;2022-08-21T15:53:12;27.00;99.70
21811;DHT22;11067;48.788;9.208;2022-08-21T15:55:38;27.00;99.50
21811;DHT22;11067;48.788;9.208;2022-08-21T15:58:04;26.90;99.70
21811;DHT22;11067;48.788;9.208;2022-08-21T16:00:32;27.00;99.50
21811;DHT22;11067;48.788;9.208;2022-08-21T16:02:58;27.00;99.70
21811;DHT22;11067;48.788;9.208;2022-08-21T16:05:24;27.00;99.90
21811;DHT22;11067;48.788;9.208;2022-08-21T16:07:50;26.90;99.40
21811;DHT22;11067;48.788;9.208;2022-08-21T16:10:19;26.90;99.00
21811;DHT22;11067;48.788;9.208;2022-08-21T16:12:49;26.80;99.40
21811;DHT22;11067;48.788;9.208;2022-08-21T16:15:16;27.00;99.00
21811;DHT22;11067;48.788;9.208;2022-08-21T16:17:44;26.90;99.00
21811;DHT22;11067;48.788;9.208;2022-08-21T16:20:15;26.90;99.10
21811;DHT22;11067;48.788;9.208;2022-08-21T16:22:41;26.90;99.10
21811;DHT22;11067;48.788;9.208;2022-08-21T16:25:08;26.90;99.00
21811;DHT22;11067;48.788;9.208;2022-08-21T16:27:34;26.80;99.00
21811;DHT22;11067;48.788;9.208;2022-08-21T16:30:01;26.80;98.80
21811;DHT22;11067;48.788;9.208;2022-08-21T16:32:28;26.60;98.70
21811;DHT22;11067;48.788;9.208;2022-08-21T16:34:54;26.50;98.90
21811;DHT22;11067;48.788;9.208;2022-08-21T16:37:20;26.60;99.40
21811;DHT22;11067;48.788;9.208;2022-08-21T16:39:46;26.60;98.90
21811;DHT22;11067;48.788;9.208;2022-08-21T16:42:17;26.70;99.00
21811;DHT22;11067;48.788;9.208;2022-08-21T16:44:43;26.70;98.70
21811;DHT22;11067;48.788;9.208;2022-08-21T16:47:09;26.70;98.90
21811;DHT22;11067;48.788;9.208;2022-08-21T16:49:40;26.70;98.40